Time;durP1;ratioP1;P1;durP2;ratioP2;P2;SDS_P1;SDS_P2;PMS_P1;PMS_P2;Temp;Humidity;BMP_temperature;BMP_pressure;BME280_temperature;BME280_humidity;BME280_pressure;Samples;Min_cycle;Max_cycle;Signal;HPM_P1;HPM_P2
2022/11/25 00:00:43;;;;;;;18.50;11.33;;;1.30;99.90;;;;;;4989259;28;20420;-80
2022/11/25 00:03:08;;;;;;;18.90;10.50;;;1.40;99.90;;;;;;4992975;28;20227;-79
2022/11/25 00:05:34;;;;;;;22.87;11.33;;;1.30;99.90;;;;;;4992299;28;20193;-79
2022/11/25 00:07:59;;;;;;;21.23;11.70;;;1.30;99.90;;;;;;4990674;28;20250;-79
2022/11/25 00:10:25;;;;;;;19.07;11.63;;;1.30;99.90;;;;;;4989895;28;20330;-79
2022/11/25 00:12:51;;;;;;;22.47;11.03;;;1.30;99.90;;;;;;4990946;28;20172;-79
2022/11/25 00:15:16;;;;;;;23.77;11.10;;;1.30;99.90;;;;;;4991250;28;20204;-79
2022/11/25 00:17:42;;;;;;;19.60;10.87;;;1.30;99.90;;;;;;4991808;28;20196;-79
2022/11/25 00:20:08;;;;;;;25.57;12.13;;;1.50;99.90;;;;;;4991701;28;20210;-79
2022/11/25 00:22:33;;;;;;;22.30;11.17;;;1.70;99.90;;;;;;4991151;28;20275;-80
2022/11/25 00:24:59;;;;;;;19.83;11.17;;;1.70;99.90;;;;;;4990586;28;20680;-79
2022/11/25 00:27:24;;;;;;;18.03;10.50;;;1.70;99.90;;;;;;4987474;28;20216;-78
2022/11/25 00:29:50;;;;;;;22.23;10.63;;;1.50;99.90;;;;;;4987733;28;21198;-80
2022/11/25 00:32:15;;;;;;;23.20;11.37;;;1.50;99.90;;;;;;4986738;28;20184;-79
2022/11/25 00:34:41;;;;;;;20.67;10.53;;;1.60;99.90;;;;;;4986987;28;20188;-80
2022/11/25 00:37:07;;;;;;;16.53;9.57;;;1.50;99.90;;;;;;4985996;28;20215;-76
2022/11/25 00:39:32;;;;;;;23.97;10.60;;;1.60;99.90;;;;;;4987120;28;20612;-79
2022/11/25 00:44:42;;;;;;;18.67;10.17;;;1.70;99.90;;;;;;4987822;28;21138;-79
2022/11/25 00:47:18;;;;;;;22.63;9.80;;;1.80;99.90;;;;;;4988284;28;20290;-78
2022/11/25 00:49:46;;;;;;;20.40;11.40;;;1.80;99.90;;;;;;4987681;28;20653;-79
2022/11/25 00:52:17;;;;;;;19.90;11.20;;;1.80;99.90;;;;;;4987531;28;20200;-80
2022/11/25 00:54:43;;;;;;;19.97;11.20;;;1.70;99.90;;;;;;4987285;28;20682;-79
2022/11/25 00:57:10;;;;;;;22.33;11.53;;;1.50;99.90;;;;;;4986186;28;20191;-79
2022/11/25 00:59:35;;;;;;;21.87;11.83;;;1.40;99.90;;;;;;4987973;28;20204;-79
2022/11/25 01:02:01;;;;;;;19.23;10.03;;;1.30;99.90;;;;;;4988011;28;20203;-78
2022/11/25 01:04:27;;;;;;;20.43;11.13;;;1.10;99.90;;;;;;4988888;28;20188;-79
2022/11/25 01:06:55;;;;;;;22.33;10.53;;;1.00;99.90;;;;;;4986291;28;20239;-79
2022/11/25 01:09:21;;;;;;;17.83;9.90;;;0.90;99.90;;;;;;4987518;28;20176;-80
2022/11/25 01:11:50;;;;;;;20.47;10.33;;;0.90;99.90;;;;;;4985782;28;20184;-79
2022/11/25 01:14:15;;;;;;;17.33;9.73;;;0.80;99.90;;;;;;4985689;28;20230;-80
2022/11/25 01:16:41;;;;;;;22.67;11.03;;;0.70;99.90;;;;;;4988290;28;20700;-79
2022/11/25 01:19:07;;;;;;;20.10;10.77;;;0.70;99.90;;;;;;4988188;28;20263;-79
2022/11/25 01:21:33;;;;;;;18.30;10.63;;;0.70;99.90;;;;;;4986991;28;20192;-80
2022/11/25 01:24:00;;;;;;;16.60;10.10;;;0.60;99.90;;;;;;4988949;28;20681;-80
2022/11/25 01:26:27;;;;;;;14.80;9.73;;;0.60;99.90;;;;;;4988393;28;20248;-80
2022/11/25 01:28:55;;;;;;;19.07;10.17;;;0.70;99.90;;;;;;4990266;28;20195;-79
2022/11/25 01:31:23;;;;;;;15.70;9.47;;;0.70;99.90;;;;;;4992366;28;20190;-80
2022/11/25 01:33:57;;;;;;;15.90;8.60;;;0.60;99.90;;;;;;4985819;28;20187;-78
2022/11/25 01:36:23;;;;;;;14.43;8.53;;;0.70;99.90;;;;;;4985800;28;20266;-78
2022/11/25 01:38:52;;;;;;;14.50;8.07;;;0.70;99.90;;;;;;4985629;28;20243;-79
2022/11/25 01:41:19;;;;;;;16.87;8.03;;;0.70;99.90;;;;;;4984841;28;20194;-79
2022/11/25 01:44:04;;;;;;;15.17;8.30;;;0.80;99.90;;;;;;4984770;28;20223;-78
2022/11/25 01:46:45;;;;;;;15.60;8.90;;;0.70;99.90;;;;;;4986474;28;20232;-78
2022/11/25 01:49:16;;;;;;;15.03;7.77;;;0.80;99.90;;;;;;4984175;28;20188;-80
2022/11/25 01:52:17;;;;;;;15.70;7.57;;;0.80;99.90;;;;;;4984648;28;20180;-80
2022/11/25 01:55:02;;;;;;;13.53;8.13;;;0.80;99.90;;;;;;4979651;28;20195;-79
2022/11/25 01:57:34;;;;;;;15.50;8.23;;;0.90;99.90;;;;;;4985775;28;20215;-78
2022/11/25 02:00:02;;;;;;;14.97;8.23;;;1.10;99.90;;;;;;4987748;28;20819;-78
2022/11/25 02:02:29;;;;;;;17.00;8.60;;;1.00;99.90;;;;;;4988144;28;20188;-78
2022/11/25 02:04:55;;;;;;;18.17;9.47;;;0.90;99.90;;;;;;4983611;28;20192;-79
2022/11/25 02:07:33;;;;;;;16.70;9.47;;;1.00;99.90;;;;;;4983105;28;20593;-77
2022/11/25 02:10:02;;;;;;;18.93;9.70;;;1.00;99.90;;;;;;4983489;28;20258;-77
2022/11/25 02:12:29;;;;;;;16.77;8.80;;;1.00;99.90;;;;;;4983777;28;20352;-80
2022/11/25 02:14:57;;;;;;;15.73;8.73;;;0.90;99.90;;;;;;4983183;28;20206;-79
2022/11/25 02:17:23;;;;;;;16.53;9.03;;;0.80;99.90;;;;;;4985135;28;20283;-80
2022/11/25 02:20:04;;;;;;;19.27;8.43;;;0.90;99.90;;;;;;4999803;28;20275;-79
2022/11/25 02:23:02;;;;;;;15.80;8.13;;;0.80;99.90;;;;;;4983393;28;20180;-78
2022/11/25 02:25:36;;;;;;;15.70;8.47;;;0.70;99.90;;;;;;4981509;28;20242;-79
2022/11/25 02:28:15;;;;;;;15.43;8.60;;;0.70;99.90;;;;;;4981696;28;20212;-78
2022/11/25 02:30:40;;;;;;;17.50;9.00;;;0.70;99.90;;;;;;4982285;28;20562;-78
2022/11/25 02:33:07;;;;;;;15.60;8.77;;;0.60;99.90;;;;;;4983122;28;20271;-76
2022/11/25 02:35:35;;;;;;;15.47;8.77;;;0.70;99.90;;;;;;4983384;28;20215;-77
2022/11/25 02:38:23;;;;;;;13.87;8.70;;;0.60;99.90;;;;;;4986168;28;20669;-79
2022/11/25 02:41:00;;;;;;;15.27;10.13;;;0.70;99.90;;;;;;4985753;28;20188;-79
2022/11/25 02:43:26;;;;;;;19.20;9.13;;;0.70;99.90;;;;;;4987036;28;20184;-77
2022/11/25 02:45:57;;;;;;;17.53;10.37;;;0.80;99.90;;;;;;4987720;28;20215;-78
2022/11/25 02:48:24;;;;;;;18.40;10.70;;;0.70;99.90;;;;;;4986524;28;20200;-79
2022/11/25 02:50:49;;;;;;;21.10;12.10;;;0.70;99.90;;;;;;4984785;28;20515;-77
2022/11/25 02:53:16;;;;;;;23.10;12.83;;;0.80;99.90;;;;;;4984458;28;20215;-79
2022/11/25 02:55:42;;;;;;;21.23;12.23;;;0.80;99.90;;;;;;4984373;28;20240;-78
2022/11/25 02:58:08;;;;;;;27.87;14.80;;;0.90;99.90;;;;;;4982608;28;20208;-79
2022/11/25 03:00:34;;;;;;;21.33;12.17;;;0.90;99.90;;;;;;4988734;28;20717;-78
2022/11/25 03:03:00;;;;;;;33.00;17.03;;;1.10;99.90;;;;;;5005330;28;20326;-78
2022/11/25 03:05:26;;;;;;;19.67;12.53;;;1.20;99.90;;;;;;4988443;28;20250;-78
2022/11/25 03:07:51;;;;;;;37.73;20.57;;;1.30;99.90;;;;;;4989218;28;20200;-78
2022/11/25 03:10:17;;;;;;;29.77;16.60;;;1.30;99.90;;;;;;4989438;28;20601;-78
2022/11/25 03:12:43;;;;;;;28.10;14.60;;;1.40;99.90;;;;;;4989164;28;20199;-77
2022/11/25 03:15:09;;;;;;;34.30;16.13;;;1.60;99.90;;;;;;4989315;28;20204;-78
2022/11/25 03:17:35;;;;;;;24.20;14.03;;;1.60;99.90;;;;;;4987206;28;20323;-78
2022/11/25 03:20:01;;;;;;;28.47;16.50;;;1.70;99.90;;;;;;4986022;28;20274;-78
2022/11/25 03:22:27;;;;;;;25.17;15.20;;;1.80;99.90;;;;;;4987564;28;20177;-78
2022/11/25 03:24:52;;;;;;;25.70;14.83;;;1.80;99.90;;;;;;4988087;28;20195;-79
2022/11/25 03:27:18;;;;;;;29.50;16.90;;;1.80;99.90;;;;;;4987372;28;20291;-77
2022/11/25 03:29:44;;;;;;;25.83;15.60;;;1.80;99.90;;;;;;4989505;28;20173;-79
2022/11/25 03:32:09;;;;;;;26.27;15.63;;;1.80;99.90;;;;;;4989300;28;20187;-78
2022/11/25 03:34:35;;;;;;;27.33;16.40;;;1.80;99.90;;;;;;4988695;28;20859;-77
2022/11/25 03:37:00;;;;;;;29.93;16.73;;;1.90;99.90;;;;;;4989386;28;20204;-79
2022/11/25 03:39:26;;;;;;;27.50;14.97;;;2.10;99.90;;;;;;4987799;28;20195;-78
2022/11/25 03:41:52;;;;;;;25.53;15.00;;;2.10;99.90;;;;;;4988772;28;20454;-77
2022/11/25 03:44:17;;;;;;;24.23;15.10;;;2.10;99.90;;;;;;4988005;28;20188;-78
2022/11/25 03:46:43;;;;;;;23.10;13.10;;;2.20;99.90;;;;;;4989593;28;20828;-78
2022/11/25 03:49:08;;;;;;;24.80;14.13;;;2.30;99.90;;;;;;4988093;28;20303;-77
2022/11/25 03:51:34;;;;;;;24.27;13.73;;;2.40;99.90;;;;;;4988778;28;20185;-79
2022/11/25 03:54:00;;;;;;;19.63;12.17;;;2.50;99.90;;;;;;4987240;28;20275;-78
2022/11/25 03:56:25;;;;;;;21.00;12.17;;;2.40;99.90;;;;;;4986539;28;20200;-79
2022/11/25 03:58:51;;;;;;;21.63;11.70;;;2.60;99.90;;;;;;4987561;28;20764;-79
2022/11/25 04:01:16;;;;;;;21.97;11.60;;;2.60;99.90;;;;;;4987895;28;20288;-78
2022/11/25 04:03:42;;;;;;;25.40;12.30;;;2.70;99.90;;;;;;4988279;28;20176;-78
2022/11/25 04:06:08;;;;;;;20.43;10.70;;;2.60;99.90;;;;;;4987029;28;20346;-78
2022/11/25 04:08:33;;;;;;;15.93;10.63;;;2.40;99.90;;;;;;4988007;28;20180;-78
2022/11/25 04:10:59;;;;;;;14.40;9.83;;;2.40;99.90;;;;;;4987300;28;20274;-79
2022/11/25 04:13:25;;;;;;;15.90;9.57;;;2.40;99.90;;;;;;4988995;28;20188;-80
2022/11/25 04:15:51;;;;;;;18.80;9.70;;;2.20;99.90;;;;;;4988856;28;20196;-78
2022/11/25 04:18:18;;;;;;;14.90;9.03;;;2.10;99.90;;;;;;4988232;28;20181;-79
2022/11/25 04:20:44;;;;;;;19.60;8.43;;;1.90;94.80;;;;;;4986582;28;20181;-78
2022/11/25 04:23:11;;;;;;;16.10;8.80;;;1.90;97.30;;;;;;4988029;28;20180;-78
2022/11/25 04:25:36;;;;;;;12.90;7.57;;;1.90;99.90;;;;;;4989130;28;20235;-79
2022/11/25 04:28:03;;;;;;;15.57;8.70;;;1.80;91.90;;;;;;4991423;28;20235;-79
2022/11/25 04:30:29;;;;;;;16.30;9.33;;;1.60;77.50;;;;;;4988693;28;20180;-77
2022/11/25 04:32:54;;;;;;;15.83;8.93;;;1.60;91.60;;;;;;4988239;28;20187;-77
2022/11/25 04:35:20;;;;;;;17.63;8.77;;;1.40;56.70;;;;;;5001028;28;20200;-77
2022/11/25 04:37:46;;;;;;;14.33;8.13;;;1.30;54.40;;;;;;4986809;28;20184;-77
2022/11/25 04:40:12;;;;;;;16.57;8.63;;;1.20;50.40;;;;;;4987502;28;20184;-78
2022/11/25 04:42:38;;;;;;;14.40;8.70;;;1.10;45.80;;;;;;4987710;28;20187;-78
2022/11/25 04:45:13;;;;;;;13.27;8.83;;;1.10;50.90;;;;;;4988445;28;20180;-78
2022/11/25 04:47:39;;;;;;;14.93;8.00;;;1.00;56.20;;;;;;4987745;28;21061;-79
2022/11/25 04:50:08;;;;;;;10.80;7.97;;;1.00;77.10;;;;;;4986376;28;20190;-77
2022/11/25 04:52:34;;;;;;;18.23;8.17;;;0.90;81.40;;;;;;4986051;28;21228;-78
2022/11/25 04:55:00;;;;;;;13.40;7.57;;;1.00;94.60;;;;;;4985625;28;20204;-78
2022/11/25 04:57:26;;;;;;;13.37;7.00;;;1.00;99.90;;;;;;4987168;28;20180;-77
2022/11/25 04:59:51;;;;;;;12.80;6.87;;;1.00;99.90;;;;;;4986701;28;20315;-77
2022/11/25 05:02:19;;;;;;;12.57;7.30;;;1.10;99.90;;;;;;4989671;28;20263;-79
2022/11/25 05:04:47;;;;;;;10.57;6.67;;;1.30;99.90;;;;;;4987365;28;20206;-78
2022/11/25 05:07:14;;;;;;;12.40;6.47;;;1.20;99.90;;;;;;4987442;28;20682;-78
2022/11/25 05:09:40;;;;;;;13.77;6.90;;;1.20;99.90;;;;;;4988111;28;20184;-76
2022/11/25 05:12:07;;;;;;;11.43;5.80;;;1.20;99.90;;;;;;4984060;28;20199;-79
2022/11/25 05:14:34;;;;;;;12.13;5.63;;;1.30;99.90;;;;;;4985825;28;20210;-77
2022/11/25 05:17:01;;;;;;;18.27;6.50;;;1.50;99.90;;;;;;4985366;28;20295;-79
2022/11/25 05:19:27;;;;;;;13.53;6.43;;;1.50;99.90;;;;;;4985051;28;20285;-79
2022/11/25 05:21:53;;;;;;;10.83;6.40;;;1.70;99.90;;;;;;4985087;28;20267;-78
2022/11/25 05:24:18;;;;;;;14.83;4.97;;;1.60;99.90;;;;;;4982295;28;20204;-79
2022/11/25 05:26:44;;;;;;;13.97;5.60;;;1.50;99.90;;;;;;4983395;28;20223;-78
2022/11/25 05:29:10;;;;;;;12.23;5.33;;;1.50;99.90;;;;;;4982539;28;20172;-77
2022/11/25 05:31:35;;;;;;;14.90;6.87;;;1.50;99.90;;;;;;4984921;28;20703;-78
2022/11/25 05:34:02;;;;;;;14.47;6.77;;;1.50;99.90;;;;;;4985030;28;20271;-79
2022/11/25 05:36:28;;;;;;;12.87;6.00;;;1.60;99.90;;;;;;4984235;28;20575;-78
2022/11/25 05:38:55;;;;;;;11.83;6.53;;;1.50;99.90;;;;;;4985623;28;20189;-79
2022/11/25 05:41:21;;;;;;;12.33;6.57;;;1.50;99.90;;;;;;4986871;28;20172;-79
2022/11/25 05:43:47;;;;;;;15.47;7.37;;;1.50;99.90;;;;;;4986802;28;20239;-79
2022/11/25 05:46:12;;;;;;;18.10;7.47;;;1.40;99.90;;;;;;4983135;28;20216;-78
2022/11/25 05:48:38;;;;;;;16.40;6.80;;;1.40;99.90;;;;;;4986100;28;20180;-79
2022/11/25 05:51:04;;;;;;;15.87;6.67;;;1.40;99.90;;;;;;4986200;28;20242;-79
2022/11/25 05:53:30;;;;;;;12.10;6.20;;;1.40;99.90;;;;;;4987694;28;20184;-79
2022/11/25 05:55:59;;;;;;;19.80;6.80;;;1.30;99.90;;;;;;4987094;28;20682;-79
2022/11/25 05:58:25;;;;;;;11.97;6.20;;;1.30;99.90;;;;;;4985593;28;20196;-78
2022/11/25 06:00:51;;;;;;;14.67;6.27;;;1.30;99.90;;;;;;4988351;28;20243;-79
2022/11/25 06:03:16;;;;;;;12.60;6.60;;;1.20;99.90;;;;;;4987326;28;20184;-78
2022/11/25 06:05:43;;;;;;;14.43;6.53;;;1.10;99.90;;;;;;4985562;28;20200;-79
2022/11/25 06:08:08;;;;;;;8.77;5.40;;;1.00;99.90;;;;;;4987255;28;20200;-78
2022/11/25 06:10:38;;;;;;;14.83;6.67;;;0.90;99.90;;;;;;4987114;28;20237;-79
2022/11/25 06:13:03;;;;;;;14.27;6.70;;;0.90;99.90;;;;;;4987266;28;20203;-79
2022/11/25 06:15:29;;;;;;;9.93;5.07;;;0.90;99.90;;;;;;4987192;28;20638;-78
2022/11/25 06:17:55;;;;;;;11.70;5.87;;;0.80;99.90;;;;;;4984203;28;20203;-79
2022/11/25 06:20:20;;;;;;;13.23;5.73;;;0.80;99.90;;;;;;4986672;28;20691;-79
2022/11/25 06:22:46;;;;;;;11.70;5.23;;;0.80;99.90;;;;;;4986740;28;20675;-79
2022/11/25 06:25:12;;;;;;;13.10;5.80;;;0.70;99.90;;;;;;4985160;28;20230;-79
2022/11/25 06:27:37;;;;;;;10.83;5.80;;;0.80;99.90;;;;;;4986322;28;20212;-78
2022/11/25 06:30:03;;;;;;;10.40;5.37;;;0.80;99.90;;;;;;4984816;28;20188;-78
2022/11/25 06:32:29;;;;;;;11.93;6.70;;;0.80;99.90;;;;;;4986470;28;20260;-79
2022/11/25 06:34:54;;;;;;;13.00;6.67;;;0.70;99.90;;;;;;4987453;28;20320;-79
2022/11/25 06:37:20;;;;;;;13.77;5.80;;;0.70;99.90;;;;;;4988580;28;20275;-79
2022/11/25 06:39:46;;;;;;;11.23;5.93;;;0.70;99.90;;;;;;4988637;28;20191;-79
2022/11/25 06:42:12;;;;;;;12.43;5.27;;;0.70;99.90;;;;;;4989043;28;20216;-79
2022/11/25 06:44:37;;;;;;;13.57;6.33;;;0.80;99.90;;;;;;4987303;28;20180;-78
2022/11/25 06:47:03;;;;;;;12.60;6.33;;;0.90;99.90;;;;;;4990507;28;20212;-79
2022/11/25 06:49:29;;;;;;;16.40;7.87;;;1.00;99.90;;;;;;4988686;28;21248;-79
2022/11/25 06:51:54;;;;;;;15.43;7.57;;;1.10;99.90;;;;;;4989473;28;20192;-79
2022/11/25 06:54:20;;;;;;;15.33;7.40;;;1.00;99.90;;;;;;4988600;28;20180;-78
2022/11/25 06:56:50;;;;;;;18.50;7.23;;;1.10;99.90;;;;;;4989453;28;20876;-78
2022/11/25 06:59:17;;;;;;;17.43;7.60;;;1.10;99.90;;;;;;4988045;28;20203;-79
2022/11/25 07:01:43;;;;;;;16.67;7.27;;;1.10;99.90;;;;;;4986545;28;20184;-79
2022/11/25 07:04:08;;;;;;;15.30;7.17;;;1.10;99.90;;;;;;4988577;28;20660;-79
2022/11/25 07:06:34;;;;;;;13.47;6.83;;;1.20;99.90;;;;;;4988122;28;20601;-78
2022/11/25 07:09:01;;;;;;;16.30;7.40;;;1.20;99.90;;;;;;4987657;28;20184;-78
2022/11/25 07:11:45;;;;;;;14.27;6.70;;;1.20;99.90;;;;;;4988102;28;20207;-78
2022/11/25 07:14:13;;;;;;;12.57;6.23;;;1.20;99.90;;;;;;4990898;28;20187;-78
2022/11/25 07:16:40;;;;;;;11.60;6.10;;;1.20;99.90;;;;;;4995555;28;20382;-79
2022/11/25 07:19:06;;;;;;;14.63;6.70;;;1.30;99.90;;;;;;4994644;28;20192;-80
2022/11/25 07:21:33;;;;;;;18.17;5.93;;;1.30;99.90;;;;;;4995748;28;20196;-79
2022/11/25 07:24:00;;;;;;;23.80;6.80;;;1.40;99.90;;;;;;4995258;28;20194;-79
2022/11/25 07:26:28;;;;;;;14.80;5.73;;;1.50;99.90;;;;;;4996452;28;20315;-79
2022/11/25 07:28:58;;;;;;;11.20;5.90;;;1.70;99.90;;;;;;4996403;28;20180;-79
2022/11/25 07:31:32;;;;;;;10.73;5.40;;;1.80;99.90;;;;;;4997038;28;20234;-79
2022/11/25 07:34:08;;;;;;;15.30;5.87;;;1.90;99.90;;;;;;4996618;28;20195;-78
2022/11/25 07:36:35;;;;;;;14.93;5.73;;;1.90;99.90;;;;;;4995038;28;20207;-78
2022/11/25 07:39:06;;;;;;;13.40;7.60;;;2.00;99.90;;;;;;4995661;28;20240;-79
2022/11/25 07:41:31;;;;;;;15.43;7.10;;;2.10;99.90;;;;;;4995646;28;20180;-79
2022/11/25 07:44:00;;;;;;;13.67;6.13;;;2.10;99.90;;;;;;4996068;28;20195;-79
2022/11/25 07:46:34;;;;;;;13.20;6.00;;;2.20;99.90;;;;;;4994398;28;20231;-79
2022/11/25 07:49:03;;;;;;;17.80;5.70;;;2.30;99.90;;;;;;4994608;28;20255;-79
2022/11/25 07:51:38;;;;;;;14.53;5.60;;;2.30;99.90;;;;;;4992880;28;20254;-79
2022/11/25 07:54:06;;;;;;;21.20;6.17;;;2.40;99.90;;;;;;4992664;28;20179;-79
2022/11/25 07:56:38;;;;;;;12.43;5.77;;;2.50;99.90;;;;;;4994249;28;20204;-80
2022/11/25 07:59:04;;;;;;;14.00;7.87;;;2.50;99.90;;;;;;4991783;28;20223;-80
2022/11/25 08:01:30;;;;;;;13.70;7.27;;;2.60;99.90;;;;;;4993040;28;20263;-80
2022/11/25 08:03:56;;;;;;;22.00;12.47;;;2.70;99.90;;;;;;4994187;28;20192;-80
2022/11/25 08:06:25;;;;;;;16.47;7.73;;;2.80;99.90;;;;;;4993721;28;21162;-80
2022/11/25 08:08:54;;;;;;;59.20;41.90;;;2.80;99.90;;;;;;4993197;28;20176;-79
2022/11/25 08:11:22;;;;;;;30.00;17.90;;;2.90;99.90;;;;;;4993755;28;20580;-78
2022/11/25 08:13:48;;;;;;;14.63;10.20;;;3.00;99.90;;;;;;4992565;28;20195;-79
2022/11/25 08:16:15;;;;;;;17.40;7.97;;;3.10;99.90;;;;;;4993593;28;20258;-80
2022/11/25 08:18:43;;;;;;;18.70;9.27;;;3.20;99.90;;;;;;4993334;28;20180;-79
2022/11/25 08:21:11;;;;;;;16.20;6.97;;;3.20;99.90;;;;;;4992152;28;20284;-79
2022/11/25 08:23:40;;;;;;;15.07;6.47;;;3.30;99.90;;;;;;4993920;28;20314;-80
2022/11/25 08:26:09;;;;;;;25.53;15.60;;;3.30;99.90;;;;;;5007933;28;20474;-80
2022/11/25 08:28:35;;;;;;;13.63;7.20;;;3.30;99.90;;;;;;4992672;28;20191;-79
2022/11/25 08:31:03;;;;;;;16.87;6.20;;;3.30;99.90;;;;;;5007505;28;20184;-79
2022/11/25 08:33:28;;;;;;;28.37;16.40;;;3.30;99.90;;;;;;4993900;28;20184;-79
2022/11/25 08:35:54;;;;;;;16.73;8.10;;;3.20;99.90;;;;;;4994520;28;20196;-79
2022/11/25 08:38:20;;;;;;;14.57;7.17;;;3.10;99.90;;;;;;4991889;28;20246;-79
2022/11/25 08:40:46;;;;;;;12.00;7.97;;;3.20;99.90;;;;;;4994804;28;20188;-79
2022/11/25 08:43:11;;;;;;;29.27;16.87;;;3.20;99.90;;;;;;4992558;28;20180;-80
2022/11/25 08:45:38;;;;;;;34.13;21.03;;;3.40;99.90;;;;;;4988694;28;20208;-80
2022/11/25 08:48:04;;;;;;;26.60;14.20;;;3.50;99.90;;;;;;4985671;28;20311;-81
2022/11/25 08:50:31;;;;;;;46.40;29.90;;;3.50;99.90;;;;;;4988979;28;20523;-79
2022/11/25 08:52:57;;;;;;;24.03;12.30;;;3.60;99.90;;;;;;4988402;28;20193;-80
2022/11/25 08:55:25;;;;;;;18.40;11.80;;;3.70;99.90;;;;;;4990672;28;20565;-80
2022/11/25 08:57:51;;;;;;;14.27;8.07;;;3.80;99.90;;;;;;4989824;28;20191;-79
2022/11/25 09:00:17;;;;;;;18.33;11.33;;;3.80;99.90;;;;;;4990148;28;20199;-79
2022/11/25 09:02:43;;;;;;;26.40;18.23;;;3.90;99.90;;;;;;4988384;28;20184;-79
2022/11/25 09:05:12;;;;;;;16.60;7.40;;;4.00;99.90;;;;;;4988424;28;20211;-79
2022/11/25 09:07:37;;;;;;;14.67;7.30;;;4.80;97.50;;;;;;4993444;28;20208;-79
2022/11/25 09:10:05;;;;;;;9.77;6.60;;;4.30;96.00;;;;;;4993426;28;20506;-79
2022/11/25 09:12:31;;;;;;;18.53;9.53;;;4.40;92.50;;;;;;4990977;28;20541;-79
2022/11/25 09:14:56;;;;;;;14.97;6.97;;;4.60;86.90;;;;;;4992680;28;20218;-79
2022/11/25 09:17:22;;;;;;;16.93;7.77;;;4.50;11.50;;;;;;4992578;28;20258;-79
2022/11/25 09:19:48;;;;;;;16.00;8.23;;;4.70;1.00;;;;;;4991819;28;20188;-78
2022/11/25 09:22:14;;;;;;;11.57;6.10;;;4.80;1.00;;;;;;4990712;28;20181;-80
2022/11/25 09:24:40;;;;;;;10.67;6.10;;;4.90;1.00;;;;;;4990660;28;20426;-80
2022/11/25 09:27:06;;;;;;;21.43;14.10;;;4.70;1.00;;;;;;4991400;28;20246;-80
2022/11/25 09:29:31;;;;;;;12.17;6.57;;;4.80;1.00;;;;;;4992707;28;20227;-80
2022/11/25 09:31:57;;;;;;;12.13;6.63;;;4.80;1.00;;;;;;4991968;28;20184;-80
2022/11/25 09:34:23;;;;;;;14.67;6.23;;;4.80;1.00;;;;;;4990502;28;20267;-80
2022/11/25 09:36:49;;;;;;;13.00;5.93;;;4.90;1.00;;;;;;4991152;28;20207;-80
2022/11/25 09:39:14;;;;;;;13.00;6.47;;;4.70;1.00;;;;;;4993252;28;20184;-82
2022/11/25 09:48:13;;;;;;;12.93;6.50;;;5.10;26.70;;;;;;4993512;28;20210;-79
2022/11/25 09:50:51;;;;;;;14.27;5.90;;;5.10;28.30;;;;;;4991992;28;20203;-79
2022/11/25 09:53:29;;;;;;;13.37;5.30;;;5.10;1.00;;;;;;4993427;28;20223;-79
2022/11/25 09:56:01;;;;;;;15.03;7.70;;;5.20;4.30;;;;;;4994987;28;20235;-80
2022/11/25 09:58:43;;;;;;;14.60;7.07;;;5.30;16.80;;;;;;4994859;28;20634;-79
2022/11/25 10:01:18;;;;;;;11.07;5.60;;;5.40;34.90;;;;;;4994121;28;20389;-79
2022/11/25 10:03:49;;;;;;;10.83;5.67;;;5.50;45.40;;;;;;5012087;28;20337;-79
2022/11/25 10:06:18;;;;;;;11.40;5.33;;;5.50;27.90;;;;;;4996173;28;20273;-80
2022/11/25 10:08:48;;;;;;;11.63;4.57;;;5.40;1.00;;;;;;4996628;28;20188;-79
2022/11/25 10:11:20;;;;;;;11.53;5.03;;;5.50;1.00;;;;;;4995673;28;20283;-79
2022/11/25 10:13:53;;;;;;;9.50;4.73;;;6.50;1.00;;;;;;4987616;28;20271;-76
2022/11/25 10:16:48;;;;;;;12.30;5.63;;;5.70;1.00;;;;;;4984866;28;20258;-81
2022/11/25 10:19:48;;;;;;;13.70;5.63;;;5.80;1.00;;;;;;4994173;28;20242;-79
2022/11/25 10:22:14;;;;;;;11.03;5.20;;;5.80;1.00;;;;;;4996152;28;20266;-79
2022/11/25 10:24:40;;;;;;;10.53;5.23;;;5.80;1.00;;;;;;4996746;28;20989;-80
2022/11/25 10:27:13;;;;;;;9.77;5.33;;;5.80;1.00;;;;;;4996612;28;20280;-79
2022/11/25 10:29:40;;;;;;;9.57;5.47;;;5.80;1.00;;;;;;4998487;28;20199;-79
2022/11/25 10:32:22;;;;;;;11.63;6.03;;;6.00;1.00;;;;;;4997888;28;20294;-80
2022/11/25 10:34:53;;;;;;;12.87;5.43;;;6.10;1.00;;;;;;5001222;28;20207;-80
2022/11/25 10:37:37;;;;;;;9.97;5.10;;;6.10;1.00;;;;;;4996613;28;20205;-79
2022/11/25 10:40:03;;;;;;;11.47;5.43;;;6.10;1.00;;;;;;4996740;28;20200;-80
2022/11/25 10:42:29;;;;;;;13.20;6.23;;;6.20;1.00;;;;;;4995549;28;20207;-80
2022/11/25 10:44:54;;;;;;;12.27;5.83;;;6.20;1.00;;;;;;4996664;28;20674;-79
2022/11/25 10:47:41;;;;;;;12.30;6.10;;;6.30;1.00;;;;;;4994670;28;20204;-80
2022/11/25 10:50:18;;;;;;;14.87;6.87;;;6.40;1.00;;;;;;4992466;28;20188;-79
2022/11/25 10:52:53;;;;;;;12.23;6.57;;;6.30;1.00;;;;;;4992966;28;20206;-80
2022/11/25 10:55:25;;;;;;;13.27;6.40;;;6.30;1.00;;;;;;4992575;28;20211;-79
2022/11/25 10:57:52;;;;;;;11.27;5.63;;;6.30;1.00;;;;;;4995552;28;20192;-80
2022/11/25 11:00:33;;;;;;;12.40;5.77;;;6.50;1.00;;;;;;4995762;28;20200;-79
2022/11/25 11:03:20;;;;;;;9.30;5.30;;;6.40;1.00;;;;;;4994370;28;20184;-79
2022/11/25 11:05:50;;;;;;;12.63;5.30;;;6.30;1.00;;;;;;5010229;28;20226;-79
2022/11/25 11:08:22;;;;;;;8.53;4.57;;;6.30;99.90;;;;;;4997865;28;20676;-79
2022/11/25 11:11:18;;;;;;;11.43;5.40;;;6.40;99.90;;;;;;4996950;28;20271;-79
2022/11/25 11:13:45;;;;;;;13.63;7.03;;;6.40;1.00;;;;;;4997525;28;20189;-79
2022/11/25 11:16:40;;;;;;;13.50;6.20;;;6.40;1.00;;;;;;4990007;28;20200;-80
2022/11/25 11:19:09;;;;;;;7.90;6.90;;;6.50;1.00;;;;;;4988575;28;20189;-79
2022/11/25 11:21:40;;;;;;;7.47;4.53;;;6.50;1.00;;;;;;5012166;28;20252;-80
2022/11/25 11:24:23;;;;;;;8.77;5.63;;;6.60;1.00;;;;;;4997215;28;20199;-80
2022/11/25 11:27:02;;;;;;;9.20;5.40;;;6.60;99.90;;;;;;4994489;28;20642;-80
2022/11/25 11:29:28;;;;;;;15.00;6.53;;;6.70;99.90;;;;;;4995180;28;20176;-79
2022/11/25 11:31:59;;;;;;;8.83;5.87;;;6.70;99.90;;;;;;4995267;28;20238;-79
2022/11/25 11:35:12;;;;;;;13.63;5.40;;;6.60;33.00;;;;;;4992918;28;20244;-79
2022/11/25 11:37:43;;;;;;;9.03;5.40;;;6.70;99.90;;;;;;4983385;28;20460;-79
2022/11/25 11:40:21;;;;;;;13.03;7.87;;;6.70;99.90;;;;;;4983601;28;20195;-79
2022/11/25 11:43:25;;;;;;;15.83;7.27;;;6.70;1.00;;;;;;4990987;28;20199;-79
2022/11/25 11:46:19;;;;;;;8.90;5.17;;;6.80;99.90;;;;;;5008430;28;20207;-78
2022/11/25 11:49:00;;;;;;;10.40;5.60;;;6.70;1.00;;;;;;4993001;28;20227;-79
2022/11/25 11:51:52;;;;;;;12.10;6.47;;;7.20;99.90;;;;;;4992665;28;20189;-78
2022/11/25 11:54:21;;;;;;;9.47;5.93;;;6.60;99.90;;;;;;4992309;28;20199;-79
2022/11/25 11:57:01;;;;;;;12.53;5.73;;;6.60;1.00;;;;;;4992597;28;20222;-78
2022/11/25 11:59:35;;;;;;;11.17;5.33;;;7.20;1.00;;;;;;4991164;28;20255;-79
2022/11/25 12:02:21;;;;;;;12.00;5.57;;;6.60;1.00;;;;;;4992412;28;21083;-79
2022/11/25 12:05:01;;;;;;;10.80;5.63;;;6.60;1.00;;;;;;4993115;28;20462;-79
2022/11/25 12:07:35;;;;;;;11.20;5.23;;;6.50;1.00;;;;;;4991141;28;20200;-79
2022/11/25 12:10:09;;;;;;;8.90;4.97;;;6.40;1.00;;;;;;4994591;28;20191;-79
2022/11/25 12:12:57;;;;;;;10.27;5.90;;;6.50;1.00;;;;;;4995214;28;20172;-79
2022/11/25 12:15:38;;;;;;;7.70;6.33;;;6.50;1.00;;;;;;4990914;28;20733;-79
2022/11/25 12:18:31;;;;;;;8.57;6.50;;;6.70;1.00;;;;;;4987756;28;21332;-76
2022/11/25 12:21:04;;;;;;;10.60;6.00;;;6.50;1.00;;;;;;4988719;28;20673;-79
2022/11/25 12:23:51;;;;;;;7.57;5.00;;;6.50;1.00;;;;;;4985649;28;20184;-77
2022/11/25 12:26:33;;;;;;;19.63;10.43;;;6.40;1.00;;;;;;4986902;28;20216;-80
2022/11/25 12:29:11;;;;;;;15.70;8.73;;;6.40;1.00;;;;;;4987876;28;20188;-80
2022/11/25 12:31:40;;;;;;;10.07;4.67;;;6.40;1.00;;;;;;4984153;28;20187;-78
2022/11/25 12:34:29;;;;;;;12.63;6.07;;;6.60;1.00;;;;;;4984553;28;20206;-78
2022/11/25 12:37:13;;;;;;;18.20;9.00;;;6.70;99.90;;;;;;4985990;28;21247;-79
2022/11/25 12:39:56;;;;;;;16.90;7.20;;;6.70;99.90;;;;;;4987797;28;20245;-76
2022/11/25 12:42:29;;;;;;;7.80;2.87;;;6.70;1.00;;;;;;4988044;28;20192;-78
2022/11/25 12:45:24;;;;;;;14.97;6.47;;;6.90;1.00;;;;;;4989289;28;20240;-80
2022/11/25 12:47:51;;;;;;;13.00;6.10;;;6.90;99.90;;;;;;4989337;28;20200;-78
2022/11/25 12:50:48;;;;;;;9.30;4.23;;;7.00;1.00;;;;;;4988311;28;20187;-78
2022/11/25 12:53:36;;;;;;;8.87;3.83;;;7.00;99.90;;;;;;4990596;28;20231;-79
2022/11/25 12:56:10;;;;;;;7.90;3.10;;;6.90;99.90;;;;;;4987600;28;20204;-78
2022/11/25 12:58:41;;;;;;;8.60;3.50;;;6.90;1.00;;;;;;4990123;28;20757;-77
2022/11/25 13:02:01;;;;;;;9.17;3.43;;;6.90;99.90;;;;;;4987415;28;20206;-78
2022/11/25 13:04:45;;;;;;;6.17;2.70;;;6.90;99.90;;;;;;4998179;28;20764;-78
2022/11/25 13:07:23;;;;;;;6.83;3.27;;;6.90;1.00;;;;;;4978834;28;20735;-79
2022/11/25 13:10:13;;;;;;;7.50;3.30;;;6.90;99.90;;;;;;4993027;28;20250;-79
2022/11/25 13:13:09;;;;;;;8.57;3.10;;;6.80;99.90;;;;;;4989635;28;20214;-78